»·PEaware :: BLADE05 KSPS-KSPS

BLADE05 :: KSPS-KSPS

FLIGHT INFORMATION

Flight Status: Arrived
Operator: Unknown
More flights by this operator :: More flights under this callsign
Pilot: 80 FTW ENJJPT (22981)
Aircraft: BEECH AIRCRAFT T-6A TEXAN
(TEX2)
More flights by this aircraft type
Origin: KSPS Sheppard AFB/Wichita Falls Mu
United States
Destination: KSPS Sheppard AFB/Wichita Falls Mu
United States
More flights between these airports :: More routes between these airports
Route: +S1L
File this flight plan on PilotEdge
Remarks:
Altitude:
(Current/Filed)
0ft
Speed:
(Current/Filed)
0kts
Departed: 29-Jun-20 06:48 AM
Arrived: 29-Jun-20 08:04 AM
Distance/Time
Traveled:
1nm/1:15
Distance/Time
To Go:
Arrived

Flight Plot

Page will automatically refresh every two minutes.

Flight plan parsing failed; only flown route is shown


Map Options




Map Legend


Flown Route
Filed Route
Departure Airport
Arrival Airport
Navaid (VOR, NDB)
Fix

Horizontal Profiles

Position Reports

Time Latitude Longitude Heading Altitude Ground
Speed
29-Jun-20 06:34 34.000299 -98.503685 156 1023ft 0kts
29-Jun-20 06:36 34.000299 -98.503685 156 1023ft 0kts
29-Jun-20 06:37 34.000299 -98.503685 156 1023ft 0kts
29-Jun-20 06:38 34.000299 -98.503141 66 1023ft 7kts
29-Jun-20 06:39 34.001914 -98.503621 337 1023ft 6kts
29-Jun-20 06:40 34.003982 -98.502446 0 1023ft 8kts
29-Jun-20 06:41 34.007678 -98.501517 34 1023ft 12kts
29-Jun-20 06:42 34.009362 -98.498539 68 1023ft 8kts
29-Jun-20 06:43 34.010766 -98.495227 52 1023ft 6kts
29-Jun-20 06:44 34.010927 -98.494382 129 1023ft 0kts
29-Jun-20 06:45 34.010923 -98.494376 129 1023ft 0kts
29-Jun-20 06:46 34.010911 -98.493130 158 1023ft 7kts
29-Jun-20 06:47 33.977065 -98.472602 86 1416ft 201kts
29-Jun-20 06:48 34.014147 -98.447792 342 2056ft 202kts
29-Jun-20 06:49 34.065534 -98.480562 240 2016ft 203kts
29-Jun-20 06:50 34.015880 -98.495616 159 1998ft 212kts
29-Jun-20 06:51 34.023518 -98.483220 330 1957ft 130kts
29-Jun-20 06:52 34.005255 -98.490364 155 1066ft 109kts
29-Jun-20 06:53 34.006734 -98.476288 333 2035ft 120kts
29-Jun-20 06:54 34.017946 -98.496067 169 1159ft 126kts
29-Jun-20 06:55 33.996190 -98.473514 13 1985ft 141kts
29-Jun-20 06:56 34.027631 -98.492060 265 1624ft 125kts
29-Jun-20 06:57 33.998116 -98.487121 159 1341ft 150kts
29-Jun-20 06:58 34.016199 -98.483158 341 1968ft 128kts
29-Jun-20 06:59 34.008686 -98.491969 158 1024ft 95kts
29-Jun-20 07:00 34.002104 -98.474095 331 2009ft 136kts
29-Jun-20 07:01 34.033974 -98.482590 63 2659ft 148kts
29-Jun-20 07:02 34.033543 -98.419248 150 3086ft 205kts
29-Jun-20 07:03 34.026072 -98.393352 297 2012ft 200kts
29-Jun-20 07:04 34.036074 -98.463784 292 2129ft 207kts
29-Jun-20 07:05 34.061169 -98.507260 241 1939ft 213kts
29-Jun-20 07:06 34.007286 -98.491206 157 2056ft 213kts
29-Jun-20 07:07 34.028619 -98.485913 305 1853ft 135kts
29-Jun-20 07:08 34.004089 -98.489852 155 1113ft 120kts
29-Jun-20 07:09 34.011746 -98.480655 350 1950ft 140kts
29-Jun-20 07:10 34.012257 -98.493662 156 1051ft 119kts
29-Jun-20 07:11 33.972380 -98.466068 129 2257ft 201kts
29-Jun-20 07:12 34.000022 -98.453817 331 6187ft 169kts
29-Jun-20 07:13 34.040806 -98.483037 328 9853ft 186kts
29-Jun-20 07:14 34.085817 -98.516768 326 13254ft 201kts
29-Jun-20 07:15 34.121783 -98.570494 274 14089ft 235kts
29-Jun-20 07:16 34.156682 -98.626912 336 13971ft 232kts
29-Jun-20 07:17 34.216346 -98.660288 330 14195ft 238kts
29-Jun-20 07:18 34.277602 -98.697608 335 14066ft 251kts
29-Jun-20 07:19 34.342457 -98.728565 338 14105ft 251kts
29-Jun-20 07:20 34.407138 -98.762588 338 13460ft 249kts
29-Jun-20 07:21 34.461864 -98.791974 179 12113ft 259kts
29-Jun-20 07:22 34.487838 -98.790141 358 12936ft 195kts
29-Jun-20 07:24 34.529919 -98.805040 311 12854ft 143kts
29-Jun-20 07:25 34.512695 -98.821385 147 12679ft 137kts
29-Jun-20 07:26 34.501131 -98.798583 353 11914ft 133kts
29-Jun-20 07:27 34.535711 -98.800485 355 11402ft 117kts
29-Jun-20 07:28 34.516860 -98.788803 169 12054ft 119kts
29-Jun-20 07:29 34.485856 -98.783200 170 12056ft 108kts
29-Jun-20 07:30 34.458642 -98.772058 168 12066ft 106kts
29-Jun-20 07:31 34.429000 -98.751641 30 12560ft 215kts
29-Jun-20 07:32 34.474305 -98.786924 19 12996ft 180kts
29-Jun-20 07:33 34.515917 -98.794879 222 11376ft 236kts
29-Jun-20 07:34 34.474698 -98.778276 182 9962ft 287kts
29-Jun-20 07:35 34.443299 -98.777981 357 12645ft 162kts
29-Jun-20 07:36 34.488779 -98.785142 2 10521ft 266kts
29-Jun-20 07:37 34.510167 -98.805728 187 12053ft 163kts
29-Jun-20 07:38 34.534970 -98.801076 337 11834ft 162kts
29-Jun-20 07:39 34.529751 -98.815886 357 11974ft 198kts
29-Jun-20 07:40 34.495383 -98.815737 177 10146ft 266kts
29-Jun-20 07:41 34.508705 -98.815549 181 10889ft 228kts
29-Jun-20 07:41 34.456244 -98.812624 159 11173ft 226kts
29-Jun-20 07:43 34.413851 -98.749629 56 9278ft 244kts
29-Jun-20 07:43 34.459811 -98.751672 322 9980ft 206kts
29-Jun-20 07:44 34.505384 -98.794797 311 10698ft 200kts
29-Jun-20 07:46 34.524832 -98.808363 32 11163ft 161kts
29-Jun-20 07:46 34.545054 -98.829952 60 10557ft 223kts
29-Jun-20 07:47 34.508683 -98.805119 175 12560ft 77kts
29-Jun-20 07:48 34.466839 -98.796471 168 11510ft 192kts
29-Jun-20 07:49 34.438162 -98.765711 36 10989ft 166kts
29-Jun-20 07:50 34.458514 -98.798465 246 10130ft 172kts
29-Jun-20 07:51 34.440034 -98.778872 38 9265ft 160kts
29-Jun-20 07:52 34.432117 -98.771863 134 8017ft 220kts
29-Jun-20 07:53 34.389985 -98.718069 133 8085ft 224kts
29-Jun-20 07:54 34.346756 -98.662364 132 7960ft 229kts
29-Jun-20 07:55 34.302743 -98.607424 132 6393ft 226kts
29-Jun-20 07:56 34.260260 -98.553828 131 3553ft 221kts
29-Jun-20 07:57 34.207708 -98.519472 144 2524ft 214kts
29-Jun-20 07:58 34.153599 -98.510185 193 1980ft 215kts
29-Jun-20 07:59 34.100413 -98.524980 193 1553ft 174kts
29-Jun-20 08:00 34.057649 -98.515428 156 1568ft 123kts
29-Jun-20 08:01 34.026428 -98.500632 159 1387ft 115kts
29-Jun-20 08:02 34.001905 -98.488917 157 1023ft 55kts
29-Jun-20 08:03 33.995150 -98.487207 186 1023ft 12kts
29-Jun-20 08:04 33.991121 -98.487421 181 1023ft 21kts
29-Jun-20 08:05 33.988669 -98.489131 246 1023ft 18kts
29-Jun-20 08:06 33.986375 -98.494577 275 1023ft 11kts
29-Jun-20 08:07 33.991827 -98.497619 338 1023ft 23kts
29-Jun-20 08:08 33.995726 -98.500597 296 1023ft 9kts
29-Jun-20 08:09 33.997199 -98.502067 340 1023ft 4kts
29-Jun-20 08:10 33.997266 -98.502094 338 1023ft 0kts

Navigation Log

Ident Type
Flight plan parsing failed, navigation log unavailable